METAR Data
IDs: Format: Raw Decoded Include TAF

Data at: 1331 UTC 20 Oct 2021

LIBG 201250Z 17007KT 140V200 CAVOK 22/11 Q1025